createdAt,value
2017-09-21T00:00:04.083Z,23.4
2017-09-21T00:05:09.477Z,23.4
2017-09-21T00:10:15.200Z,23.4
2017-09-21T00:15:19.921Z,23.4
2017-09-21T00:20:24.978Z,23.4
2017-09-21T00:25:29.700Z,23.4
2017-09-21T00:30:35.089Z,23.4
2017-09-21T00:35:40.143Z,23.4
2017-09-21T00:40:44.861Z,23.4
2017-09-21T00:45:49.911Z,23.4
2017-09-21T00:50:54.637Z,23.4
2017-09-21T00:56:00.365Z,23.4
2017-09-21T01:01:06.425Z,23.4
2017-09-21T01:06:11.145Z,23.4
2017-09-21T01:11:15.866Z,23.4
2017-09-21T01:16:20.922Z,23.4
2017-09-21T01:21:25.978Z,23.3
2017-09-21T01:26:31.702Z,23.3
2017-09-21T01:31:37.427Z,23.3
2017-09-21T01:36:41.811Z,23.3
2017-09-21T01:41:46.868Z,23.3
2017-09-21T01:46:51.589Z,23.3
2017-09-21T01:51:57.315Z,23.3
2017-09-21T01:57:02.703Z,23.3
2017-09-21T02:02:07.420Z,23.3
2017-09-21T02:07:12.139Z,23.3
2017-09-21T02:12:17.530Z,23.3
2017-09-21T02:17:22.250Z,23.3
2017-09-21T02:22:27.307Z,23.3
2017-09-21T02:27:33.032Z,23.3
2017-09-21T02:32:38.088Z,23.3
2017-09-21T02:37:43.140Z,23.3
2017-09-21T02:42:48.529Z,23.3
2017-09-21T02:47:54.260Z,23.3
2017-09-21T02:52:59.649Z,23.3
2017-09-21T02:58:05.380Z,23.3
2017-09-21T03:03:10.764Z,23.2
2017-09-21T03:08:15.483Z,23.2
2017-09-21T03:13:20.873Z,23.2
2017-09-21T03:18:26.269Z,23.2
2017-09-21T03:23:31.324Z,23.2
2017-09-21T03:28:37.056Z,23.2
2017-09-21T03:33:42.111Z,23.2
2017-09-21T03:38:47.837Z,23.2
2017-09-21T03:43:53.564Z,23.2
2017-09-21T03:48:58.281Z,23.2
2017-09-21T03:54:03.333Z,23.2
2017-09-21T03:59:08.387Z,23.2
2017-09-21T04:04:13.111Z,23.2
2017-09-21T04:09:18.164Z,23.2
2017-09-21T04:14:23.224Z,23.2
2017-09-21T04:19:28.279Z,23.2
2017-09-21T04:24:33.338Z,23.2
2017-09-21T04:29:38.059Z,23.2
2017-09-21T04:34:42.847Z,23.2
2017-09-21T04:39:47.902Z,23.2
2017-09-21T04:44:52.624Z,23.2
2017-09-21T04:49:58.552Z,23.2
2017-09-21T04:55:04.153Z,23.2
2017-09-21T05:00:09.887Z,23.2
2017-09-21T05:05:15.644Z,23.2
2017-09-21T05:10:21.381Z,23.2
2017-09-21T05:15:26.432Z,23.2
2017-09-21T05:20:31.853Z,23.2
2017-09-21T05:25:37.243Z,23.2
2017-09-21T05:30:42.302Z,23.2
2017-09-21T05:35:47.025Z,23.2
2017-09-21T05:40:52.084Z,23.2
2017-09-21T05:45:57.469Z,23.2
2017-09-21T05:51:02.865Z,23.2
2017-09-21T05:56:08.592Z,23.2
2017-09-21T06:01:14.318Z,23.2
2017-09-21T06:06:19.708Z,23.2
2017-09-21T06:11:25.101Z,23.2
2017-09-21T06:16:30.155Z,23.2
2017-09-21T06:21:34.875Z,23.2
2017-09-21T06:26:40.268Z,23.2
2017-09-21T06:31:45.324Z,23.2
2017-09-21T06:36:50.393Z,23.2
2017-09-21T06:41:55.777Z,23.2
2017-09-21T06:47:01.841Z,23.2
2017-09-21T06:52:06.566Z,23.3
2017-09-21T06:57:11.625Z,23.3
2017-09-21T07:02:17.019Z,23.3
2017-09-21T07:07:21.410Z,23.3
2017-09-21T07:12:26.467Z,23.3
2017-09-21T07:17:31.187Z,23.3
2017-09-21T07:22:36.247Z,23.3
2017-09-21T07:27:41.642Z,23.3
2017-09-21T07:32:47.037Z,23.3
2017-09-21T07:37:52.439Z,23.3
2017-09-21T07:42:58.163Z,23.4
2017-09-21T07:48:03.223Z,23.4
2017-09-21T07:53:08.282Z,23.4
2017-09-21T07:58:12.999Z,23.4
2017-09-21T08:03:18.057Z,23.4
2017-09-21T08:08:23.450Z,23.4
2017-09-21T08:13:28.506Z,23.4
2017-09-21T08:18:33.562Z,23.4
2017-09-21T08:23:38.621Z,23.4
2017-09-21T08:28:44.013Z,23.4
2017-09-21T08:33:49.069Z,23.4
2017-09-21T08:38:53.795Z,23.4
2017-09-21T08:43:58.518Z,23.4
2017-09-21T08:49:03.242Z,23.4
2017-09-21T08:54:09.303Z,23.4
2017-09-21T08:59:14.696Z,23.4
2017-09-21T09:04:19.752Z,23.5
2017-09-21T09:09:24.141Z,23.5
2017-09-21T09:14:29.198Z,23.5
2017-09-21T09:19:34.256Z,23.5
2017-09-21T09:24:39.314Z,23.5
2017-09-21T09:29:44.710Z,23.5
2017-09-21T09:34:50.103Z,23.5
2017-09-21T09:39:55.158Z,23.5
2017-09-21T09:45:00.222Z,23.6
2017-09-21T09:50:05.280Z,23.6
2017-09-21T09:55:10.674Z,23.7
2017-09-21T10:00:16.071Z,23.8
2017-09-21T10:05:21.468Z,23.8
2017-09-21T10:10:26.531Z,23.9
2017-09-21T10:15:31.260Z,23.9
2017-09-21T10:20:36.660Z,24
2017-09-21T10:25:41.054Z,24
2017-09-21T10:30:46.117Z,24
2017-09-21T10:35:51.177Z,24
2017-09-21T10:40:56.577Z,24.1
2017-09-21T10:46:02.306Z,24.1
2017-09-21T10:51:07.371Z,24.1
2017-09-21T10:56:12.436Z,24.1
2017-09-21T11:01:18.167Z,24.1
2017-09-21T11:06:23.227Z,24.1
2017-09-21T11:11:28.825Z,24.1
2017-09-21T11:16:33.551Z,24.1
2017-09-21T11:21:38.277Z,24.1
2017-09-21T11:26:43.339Z,24.1
2017-09-21T11:31:48.734Z,24.1
2017-09-21T11:36:53.799Z,24.1
2017-09-21T11:41:58.527Z,24.1
2017-09-21T11:47:03.253Z,24.2
2017-09-21T11:52:08.648Z,24.2
2017-09-21T11:57:14.381Z,24.2
2017-09-21T12:02:19.781Z,24.3
2017-09-21T12:07:25.192Z,24.3
2017-09-21T12:12:30.613Z,24.3
2017-09-21T12:17:35.678Z,24.3
2017-09-21T12:22:40.736Z,24.2
2017-09-21T12:27:45.798Z,24.2
2017-09-21T12:32:51.197Z,24.2
2017-09-21T12:37:56.930Z,24.2
2017-09-21T12:43:02.008Z,24.1
2017-09-21T12:48:07.754Z,24.1
2017-09-21T12:53:12.816Z,24.1
2017-09-21T12:58:18.218Z,24.2
2017-09-21T13:03:22.624Z,24.2
2017-09-21T13:08:28.355Z,24.2
2017-09-21T13:13:33.436Z,24.2
2017-09-21T13:18:38.165Z,24.3
2017-09-21T13:23:43.226Z,24.3
2017-09-21T13:28:48.626Z,24.3
2017-09-21T13:33:54.026Z,24.3
2017-09-21T13:38:58.752Z,24.3
2017-09-21T13:44:04.148Z,24.3
2017-09-21T13:49:09.541Z,24.3
2017-09-21T13:54:14.272Z,24.3
2017-09-21T13:59:19.336Z,24.3
2017-09-21T14:04:24.733Z,24.3
2017-09-21T14:09:29.463Z,24.3
2017-09-21T14:14:34.521Z,24.3
2017-09-21T14:19:39.925Z,24.3
2017-09-21T14:24:44.647Z,24.3
2017-09-21T14:29:49.379Z,24.3
2017-09-21T14:34:54.449Z,24.3
2017-09-21T14:39:59.839Z,24.3
2017-09-21T14:45:04.568Z,24.2
2017-09-21T14:50:09.626Z,24.2
2017-09-21T14:55:14.353Z,24.2
2017-09-21T15:00:19.415Z,24.2
2017-09-21T15:05:24.142Z,24.2
2017-09-21T15:10:29.564Z,24.2
2017-09-21T15:15:34.599Z,24.2
2017-09-21T15:20:39.658Z,24.1
2017-09-21T15:25:44.387Z,24.1
2017-09-21T15:30:49.114Z,24.1
2017-09-21T15:35:54.509Z,24.1
2017-09-21T15:40:59.569Z,24.1
2017-09-21T15:46:04.973Z,24.1
2017-09-21T15:51:10.366Z,24.1
2017-09-21T15:56:14.761Z,24.1
2017-09-21T16:01:19.820Z,24.1
2017-09-21T16:06:24.907Z,24.1
2017-09-21T16:11:30.146Z,24.1
2017-09-21T16:16:35.544Z,24.1
2017-09-21T16:21:40.941Z,24.1
2017-09-21T16:26:46.015Z,24.1
2017-09-21T16:31:51.409Z,24.1
2017-09-21T16:36:56.475Z,24.1
2017-09-21T16:42:01.559Z,24.1
2017-09-21T16:47:06.618Z,24.1
2017-09-21T16:52:11.683Z,24.1
2017-09-21T16:57:16.750Z,24.1
2017-09-21T17:02:22.483Z,24.1
2017-09-21T17:07:27.545Z,24.1
2017-09-21T17:12:32.622Z,24.1
2017-09-21T17:17:37.036Z,24.1
2017-09-21T17:22:41.433Z,24.1
2017-09-21T17:27:46.511Z,24.1
2017-09-21T17:32:51.632Z,24.1
2017-09-21T17:37:56.746Z,24.1
2017-09-21T17:43:01.847Z,24
2017-09-21T17:48:07.927Z,24
2017-09-21T17:53:13.002Z,24
2017-09-21T17:58:17.740Z,24
2017-09-21T18:03:22.816Z,24
2017-09-21T18:08:28.230Z,24
2017-09-21T18:13:32.974Z,24
2017-09-21T18:18:37.709Z,24
2017-09-21T18:23:43.112Z,24
2017-09-21T18:28:47.845Z,23.9
2017-09-21T18:33:52.917Z,24
2017-09-21T18:38:58.661Z,23.9
2017-09-21T18:44:03.730Z,24
2017-09-21T18:49:08.463Z,24
2017-09-21T18:54:12.865Z,24
2017-09-21T18:59:18.271Z,24
2017-09-21T19:04:23.390Z,24
2017-09-21T19:09:28.462Z,24
2017-09-21T19:14:33.868Z,24
2017-09-21T19:19:38.964Z,24
2017-09-21T19:24:44.712Z,24
2017-09-21T19:29:49.836Z,24
2017-09-21T19:34:54.927Z,24
2017-09-21T19:40:00.343Z,24
2017-09-21T19:45:05.408Z,24
2017-09-21T19:50:10.140Z,24
2017-09-21T19:55:15.874Z,24
2017-09-21T20:00:20.947Z,24
2017-09-21T20:05:26.014Z,24
2017-09-21T20:10:31.415Z,24
2017-09-21T20:15:36.873Z,24
2017-09-21T20:20:41.952Z,24
2017-09-21T20:25:47.018Z,24
2017-09-21T20:30:52.434Z,24
2017-09-21T20:35:57.502Z,24
2017-09-21T20:41:02.278Z,24
2017-09-21T20:46:07.341Z,24
2017-09-21T20:51:12.736Z,24
2017-09-21T20:56:18.133Z,24
2017-09-21T21:01:22.533Z,24
2017-09-21T21:06:27.593Z,24
2017-09-21T21:11:31.989Z,24
2017-09-21T21:16:37.733Z,24
2017-09-21T21:21:43.126Z,24
2017-09-21T21:26:48.200Z,24
2017-09-21T21:31:53.272Z,24
2017-09-21T21:36:59.341Z,24
2017-09-21T21:42:05.069Z,24
2017-09-21T21:47:10.799Z,23.9
2017-09-21T21:52:16.060Z,23.9
2017-09-21T21:57:21.120Z,23.9
2017-09-21T22:02:25.850Z,23.9
2017-09-21T22:07:30.580Z,23.9
2017-09-21T22:12:36.309Z,23.9
2017-09-21T22:17:41.700Z,23.9
2017-09-21T22:22:47.089Z,23.9
2017-09-21T22:27:52.147Z,23.9
2017-09-21T22:32:57.540Z,23.9
2017-09-21T22:38:02.263Z,23.9
2017-09-21T22:43:07.320Z,23.9
2017-09-21T22:48:12.045Z,23.9
2017-09-21T22:53:17.104Z,23.9
2017-09-21T22:58:22.499Z,23.9
2017-09-21T23:03:27.554Z,23.9
2017-09-21T23:08:33.281Z,23.8
2017-09-21T23:13:38.340Z,23.8
2017-09-21T23:18:43.758Z,23.8
2017-09-21T23:23:49.122Z,23.8
2017-09-21T23:28:53.844Z,23.8
2017-09-21T23:33:58.566Z,23.8
2017-09-21T23:39:04.296Z,23.8
2017-09-21T23:44:10.025Z,23.8
2017-09-21T23:49:15.756Z,23.8
2017-09-21T23:54:21.156Z,23.8
2017-09-21T23:59:26.211Z,23.8
